createdAt,value
2017-07-20T00:00:37.985Z,99.99
2017-07-20T00:01:38.561Z,99.99
2017-07-20T00:02:39.139Z,99.99
2017-07-20T00:03:39.717Z,99.99
2017-07-20T00:04:40.306Z,99.99
2017-07-20T00:05:40.883Z,99.99
2017-07-20T00:06:41.462Z,99.99
2017-07-20T00:07:42.040Z,99.99
2017-07-20T00:08:42.618Z,99.99
2017-07-20T00:09:43.196Z,99.99
2017-07-20T00:10:43.773Z,99.99
2017-07-20T00:11:44.350Z,99.99
2017-07-20T00:12:44.930Z,99.99
2017-07-20T00:13:45.506Z,99.99
2017-07-20T00:14:46.083Z,99.99
2017-07-20T00:15:46.671Z,99.99
2017-07-20T00:16:47.250Z,99.99
2017-07-20T00:17:47.828Z,99.99
2017-07-20T00:18:48.419Z,99.99
2017-07-20T00:19:48.994Z,99.99
2017-07-20T00:20:49.570Z,99.99
2017-07-20T00:21:50.145Z,99.99
2017-07-20T00:22:50.725Z,99.99
2017-07-20T00:23:51.301Z,99.99
2017-07-20T00:24:51.877Z,99.99
2017-07-20T00:25:52.453Z,99.99
2017-07-20T00:26:53.030Z,99.99
2017-07-20T00:27:53.606Z,99.99
2017-07-20T00:28:54.183Z,99.99
2017-07-20T00:29:54.761Z,99.99
2017-07-20T00:30:55.337Z,99.99
2017-07-20T00:31:55.915Z,99.99
2017-07-20T00:32:56.504Z,99.99
2017-07-20T00:33:57.081Z,99.99
2017-07-20T00:34:57.659Z,99.99
2017-07-20T00:35:58.235Z,99.99
2017-07-20T00:36:58.815Z,99.99
2017-07-20T00:37:59.392Z,99.99
2017-07-20T00:38:59.979Z,99.99
2017-07-20T00:40:00.556Z,99.99
2017-07-20T00:41:01.132Z,99.99
2017-07-20T00:42:01.707Z,99.99
2017-07-20T00:43:02.284Z,99.99
2017-07-20T00:44:02.862Z,99.99
2017-07-20T00:45:03.438Z,99.99
2017-07-20T00:46:04.013Z,99.99
2017-07-20T00:47:04.589Z,99.99
2017-07-20T00:48:05.165Z,99.99
2017-07-20T00:49:05.743Z,99.99
2017-07-20T00:50:06.318Z,99.99
2017-07-20T00:51:06.898Z,99.99
2017-07-20T00:52:07.475Z,99.99
2017-07-20T00:53:08.050Z,99.99
2017-07-20T00:54:08.627Z,99.99
2017-07-20T00:55:09.204Z,99.99
2017-07-20T00:56:09.780Z,99.99
2017-07-20T00:57:10.369Z,99.99
2017-07-20T00:58:10.947Z,99.99
2017-07-20T00:59:11.525Z,99.99
2017-07-20T01:00:12.105Z,99.99
2017-07-20T01:01:12.682Z,99.99
2017-07-20T01:02:13.263Z,99.99
2017-07-20T01:03:13.839Z,99.99
2017-07-20T01:04:14.414Z,99.99
2017-07-20T01:05:14.991Z,99.99
2017-07-20T01:06:15.568Z,99.99
2017-07-20T01:07:16.149Z,99.99
2017-07-20T01:08:16.734Z,99.99
2017-07-20T01:09:17.313Z,99.99
2017-07-20T01:10:17.890Z,99.99
2017-07-20T01:11:18.470Z,99.99
2017-07-20T01:12:19.047Z,99.99
2017-07-20T01:13:19.626Z,99.99
2017-07-20T01:14:20.203Z,99.99
2017-07-20T01:15:20.781Z,99.99
2017-07-20T01:16:21.357Z,99.99
2017-07-20T01:17:21.935Z,99.99
2017-07-20T01:18:22.513Z,99.99
2017-07-20T01:19:23.093Z,99.99
2017-07-20T01:20:23.670Z,99.99
2017-07-20T01:21:24.260Z,99.99
2017-07-20T01:22:24.838Z,99.99
2017-07-20T01:23:25.415Z,99.99
2017-07-20T01:24:25.993Z,99.99
2017-07-20T01:25:26.570Z,99.99
2017-07-20T01:26:27.151Z,99.99
2017-07-20T01:27:27.733Z,99.99
2017-07-20T01:28:28.305Z,99.99
2017-07-20T01:29:28.882Z,99.99
2017-07-20T01:30:29.459Z,99.99
2017-07-20T01:31:30.035Z,99.99
2017-07-20T01:32:30.613Z,99.99
2017-07-20T01:33:31.189Z,99.99
2017-07-20T01:34:31.769Z,99.99
2017-07-20T01:35:32.344Z,99.99
2017-07-20T01:36:32.922Z,99.99
2017-07-20T01:37:33.499Z,99.99
2017-07-20T01:38:34.076Z,99.99
2017-07-20T01:39:34.653Z,99.99
2017-07-20T01:40:35.231Z,99.99
2017-07-20T01:41:35.807Z,99.99
2017-07-20T01:42:36.386Z,99.99
2017-07-20T01:43:36.962Z,99.99
2017-07-20T01:44:37.539Z,99.99
2017-07-20T01:45:38.116Z,99.99
2017-07-20T01:46:38.695Z,99.99
2017-07-20T01:47:39.273Z,99.99
2017-07-20T01:48:39.847Z,99.99
2017-07-20T01:49:40.425Z,99.99
2017-07-20T01:50:41.002Z,99.99
2017-07-20T01:51:41.578Z,99.99
2017-07-20T01:52:42.155Z,99.99
2017-07-20T01:53:42.733Z,99.99
2017-07-20T01:54:43.311Z,99.99
2017-07-20T01:55:43.887Z,99.99
2017-07-20T01:56:44.464Z,99.99
2017-07-20T01:57:45.040Z,99.99
2017-07-20T01:58:45.618Z,99.99
2017-07-20T01:59:46.196Z,99.99
2017-07-20T02:00:46.773Z,99.99
2017-07-20T02:01:47.351Z,99.99
2017-07-20T02:02:47.939Z,99.99
2017-07-20T02:03:48.520Z,99.99
2017-07-20T02:04:49.094Z,99.99
2017-07-20T02:05:49.673Z,99.99
2017-07-20T02:06:50.250Z,99.99
2017-07-20T02:07:50.830Z,99.99
2017-07-20T02:08:51.424Z,99.99
2017-07-20T02:09:52.008Z,99.99
2017-07-20T02:10:52.585Z,99.99
2017-07-20T02:11:53.162Z,99.99
2017-07-20T02:12:53.739Z,99.99
2017-07-20T02:13:54.326Z,99.99
2017-07-20T02:14:54.916Z,99.99
2017-07-20T02:15:55.505Z,99.99
2017-07-20T02:16:56.093Z,99.99
2017-07-20T02:17:56.661Z,99.99
2017-07-20T02:18:57.241Z,99.99
2017-07-20T02:19:57.818Z,99.99
2017-07-20T02:20:58.396Z,99.99
2017-07-20T02:21:58.973Z,99.99
2017-07-20T02:22:59.551Z,99.99
2017-07-20T02:24:00.128Z,99.99
2017-07-20T02:25:00.707Z,99.99
2017-07-20T02:26:01.284Z,99.99
2017-07-20T02:27:01.861Z,99.99
2017-07-20T02:28:02.437Z,99.99
2017-07-20T02:29:03.031Z,99.99
2017-07-20T02:30:03.590Z,99.99
2017-07-20T02:31:04.167Z,99.99
2017-07-20T02:32:04.743Z,99.99
2017-07-20T02:33:05.321Z,99.99
2017-07-20T02:34:05.897Z,99.99
2017-07-20T02:35:06.475Z,99.99
2017-07-20T02:36:07.054Z,99.99
2017-07-20T02:37:07.629Z,99.99
2017-07-20T02:38:08.204Z,99.99
2017-07-20T02:39:08.782Z,99.99
2017-07-20T02:40:09.358Z,99.99
2017-07-20T02:41:09.936Z,99.99
2017-07-20T02:42:10.513Z,99.99
2017-07-20T02:43:11.091Z,99.99
2017-07-20T02:44:11.668Z,99.99
2017-07-20T02:45:12.245Z,99.99
2017-07-20T02:46:12.821Z,99.99
2017-07-20T02:47:13.400Z,99.99
2017-07-20T02:48:13.975Z,99.99
2017-07-20T02:49:14.553Z,99.99
2017-07-20T02:50:15.131Z,99.99
2017-07-20T02:51:15.708Z,99.99
2017-07-20T02:52:16.285Z,99.99
2017-07-20T02:53:16.863Z,99.99
2017-07-20T02:54:17.442Z,99.99
2017-07-20T02:55:18.029Z,99.99
2017-07-20T02:56:18.607Z,99.99
2017-07-20T02:57:19.186Z,99.99
2017-07-20T02:58:19.760Z,99.99
2017-07-20T02:59:20.337Z,99.99
2017-07-20T03:00:20.916Z,99.99
2017-07-20T03:01:21.493Z,99.99
2017-07-20T03:02:22.079Z,99.99
2017-07-20T03:03:22.655Z,99.99
2017-07-20T03:04:23.230Z,99.99
2017-07-20T03:05:23.806Z,99.99
2017-07-20T03:06:24.381Z,99.99
2017-07-20T03:07:24.980Z,99.99
2017-07-20T03:08:25.547Z,99.99
2017-07-20T03:09:26.126Z,99.99
2017-07-20T03:10:26.703Z,99.99
2017-07-20T03:11:27.280Z,99.99
2017-07-20T03:12:27.863Z,99.99
2017-07-20T03:13:28.436Z,99.99
2017-07-20T03:14:29.013Z,99.99
2017-07-20T03:15:29.600Z,99.99
2017-07-20T03:16:30.178Z,99.99
2017-07-20T03:17:30.753Z,99.99
2017-07-20T03:18:31.329Z,99.99
2017-07-20T03:19:31.906Z,99.99
2017-07-20T03:20:32.481Z,99.99
2017-07-20T03:21:33.057Z,99.99
2017-07-20T03:22:33.634Z,99.99
2017-07-20T03:23:34.211Z,99.99
2017-07-20T03:24:34.788Z,99.99
2017-07-20T03:25:35.365Z,99.99
2017-07-20T03:26:35.941Z,99.99
2017-07-20T03:27:36.518Z,99.99
2017-07-20T03:28:37.106Z,99.99
2017-07-20T03:29:37.685Z,99.99
2017-07-20T03:30:38.263Z,99.99
2017-07-20T03:31:38.850Z,99.99
2017-07-20T03:32:39.426Z,99.99
2017-07-20T03:33:40.002Z,99.99
2017-07-20T03:34:40.579Z,99.99
2017-07-20T03:35:41.155Z,99.99
2017-07-20T03:36:41.732Z,99.99
2017-07-20T03:37:42.309Z,99.99
2017-07-20T03:38:42.905Z,99.99
2017-07-20T03:39:43.477Z,99.99
2017-07-20T03:40:44.053Z,99.99
2017-07-20T03:41:44.641Z,99.99
2017-07-20T03:42:45.218Z,99.99
2017-07-20T03:43:45.794Z,99.99
2017-07-20T03:44:46.370Z,99.99
2017-07-20T03:45:46.958Z,99.99
2017-07-20T03:46:47.536Z,99.99
2017-07-20T03:47:48.126Z,99.99
2017-07-20T03:48:48.713Z,99.99
2017-07-20T03:49:49.300Z,99.99
2017-07-20T03:50:49.878Z,99.99
2017-07-20T03:51:50.455Z,99.99
2017-07-20T03:52:51.030Z,99.99
2017-07-20T03:53:51.606Z,99.99
2017-07-20T03:54:52.184Z,99.99
2017-07-20T03:55:52.761Z,99.99
2017-07-20T03:56:53.339Z,99.99
2017-07-20T03:57:53.917Z,99.99
2017-07-20T03:58:54.497Z,99.99
2017-07-20T03:59:55.074Z,99.99
2017-07-20T04:00:55.655Z,99.99
2017-07-20T04:01:56.232Z,99.99
2017-07-20T04:02:56.812Z,99.99
2017-07-20T04:03:57.399Z,99.99
2017-07-20T04:04:57.979Z,99.99
2017-07-20T04:05:58.579Z,99.99
2017-07-20T04:06:59.144Z,99.99
2017-07-20T04:07:59.722Z,99.99
2017-07-20T04:09:00.312Z,99.99
2017-07-20T04:10:00.889Z,99.99
2017-07-20T04:11:01.469Z,99.99
2017-07-20T04:12:02.047Z,99.99
2017-07-20T04:13:02.634Z,99.99
2017-07-20T04:14:03.216Z,99.99
2017-07-20T04:15:03.814Z,99.99
2017-07-20T04:16:04.388Z,99.99
2017-07-20T04:17:04.970Z,99.99
2017-07-20T04:18:05.549Z,99.99
2017-07-20T04:19:06.126Z,99.99
2017-07-20T04:20:06.703Z,99.99
2017-07-20T04:21:07.282Z,99.99
2017-07-20T04:22:07.861Z,99.99
2017-07-20T04:23:08.435Z,99.99
2017-07-20T04:24:09.016Z,99.99
2017-07-20T04:25:09.590Z,99.99
2017-07-20T04:26:10.167Z,99.99
2017-07-20T04:27:10.744Z,99.99
2017-07-20T04:28:11.327Z,99.99
2017-07-20T04:29:11.901Z,99.99
2017-07-20T04:30:12.480Z,99.99
2017-07-20T04:31:13.059Z,99.99
2017-07-20T04:32:13.638Z,99.99
2017-07-20T04:33:14.214Z,99.99
2017-07-20T04:34:14.793Z,99.99
2017-07-20T04:35:15.368Z,99.99
2017-07-20T04:36:15.946Z,99.99
2017-07-20T04:37:16.522Z,99.99
2017-07-20T04:38:17.103Z,99.99
2017-07-20T04:39:17.688Z,99.99
2017-07-20T04:40:18.276Z,99.99
2017-07-20T04:41:18.852Z,99.99
2017-07-20T04:42:19.428Z,99.99
2017-07-20T04:43:20.004Z,99.99
2017-07-20T04:44:20.580Z,99.99
2017-07-20T04:45:21.157Z,99.99
2017-07-20T04:46:21.733Z,99.99
2017-07-20T04:47:22.309Z,99.99
2017-07-20T04:48:22.886Z,99.99
2017-07-20T04:49:23.462Z,99.99
2017-07-20T04:50:24.037Z,99.99
2017-07-20T04:51:24.615Z,99.99
2017-07-20T04:52:25.190Z,99.99
2017-07-20T04:53:25.768Z,99.99
2017-07-20T04:54:26.355Z,99.99
2017-07-20T04:55:26.931Z,99.99
2017-07-20T04:56:27.511Z,99.99
2017-07-20T04:57:28.088Z,99.99
2017-07-20T04:58:28.666Z,99.99
2017-07-20T04:59:29.242Z,99.99
2017-07-20T05:00:29.820Z,99.99
2017-07-20T05:01:30.396Z,99.99
2017-07-20T05:02:30.972Z,99.99
2017-07-20T05:03:31.548Z,99.99
2017-07-20T05:04:32.127Z,99.99
2017-07-20T05:05:32.716Z,99.99
2017-07-20T05:06:33.293Z,99.99
2017-07-20T05:07:33.872Z,99.99
2017-07-20T05:08:34.448Z,99.99
2017-07-20T05:09:35.026Z,99.99
2017-07-20T05:10:35.601Z,99.99
2017-07-20T05:11:36.180Z,99.99
2017-07-20T05:12:36.756Z,99.99
2017-07-20T05:13:37.343Z,99.99
2017-07-20T05:14:37.921Z,99.99
2017-07-20T05:15:38.498Z,99.99
2017-07-20T05:16:39.096Z,99.99
2017-07-20T05:17:39.654Z,99.99
2017-07-20T05:18:40.242Z,99.99
2017-07-20T05:19:40.816Z,99.99
2017-07-20T05:20:41.390Z,99.99
2017-07-20T05:21:41.965Z,99.99
2017-07-20T05:22:42.540Z,99.99
2017-07-20T05:23:43.116Z,99.99
2017-07-20T05:24:43.693Z,99.99
2017-07-20T05:25:44.270Z,99.99
2017-07-20T05:26:44.848Z,99.99
2017-07-20T05:27:45.423Z,99.99
2017-07-20T05:28:46.000Z,99.99
2017-07-20T05:29:46.582Z,99.99
2017-07-20T05:30:47.169Z,99.99
2017-07-20T05:31:47.746Z,99.99
2017-07-20T05:32:48.324Z,99.99
2017-07-20T05:33:48.902Z,99.99
2017-07-20T05:34:49.477Z,99.99
2017-07-20T05:35:50.056Z,99.99
2017-07-20T05:36:50.634Z,99.99
2017-07-20T05:37:51.214Z,99.99
2017-07-20T05:38:51.787Z,99.99
2017-07-20T05:39:52.364Z,99.99
2017-07-20T05:40:52.940Z,99.99
2017-07-20T05:41:53.530Z,99.99
2017-07-20T05:42:54.109Z,99.99
2017-07-20T05:43:54.685Z,99.99
2017-07-20T05:44:55.263Z,99.99
2017-07-20T05:45:55.840Z,99.99
2017-07-20T05:46:56.429Z,99.99
2017-07-20T05:47:57.008Z,99.99
2017-07-20T05:48:57.587Z,99.99
2017-07-20T05:49:58.174Z,99.99
2017-07-20T05:50:58.753Z,99.99
2017-07-20T05:51:59.330Z,99.99
2017-07-20T05:52:59.910Z,99.99
2017-07-20T05:54:00.509Z,99.99
2017-07-20T05:55:01.066Z,99.99
2017-07-20T05:56:01.643Z,99.99
2017-07-20T05:57:02.232Z,99.99
2017-07-20T05:58:02.811Z,99.99
2017-07-20T05:59:03.392Z,99.99
2017-07-20T06:00:03.964Z,99.99
2017-07-20T06:01:04.542Z,99.99
2017-07-20T06:02:05.120Z,99.99
2017-07-20T06:03:05.698Z,99.99
2017-07-20T06:04:06.273Z,99.99
2017-07-20T06:05:06.884Z,99.99
2017-07-20T06:06:07.439Z,99.99
2017-07-20T06:07:08.019Z,99.99
2017-07-20T06:08:08.596Z,99.99
2017-07-20T06:09:09.175Z,99.99
2017-07-20T06:10:09.753Z,99.99
2017-07-20T06:11:10.340Z,99.99
2017-07-20T06:12:10.921Z,99.99
2017-07-20T06:13:11.497Z,99.99
2017-07-20T06:14:12.080Z,99.99
2017-07-20T06:15:12.653Z,99.99
2017-07-20T06:16:13.231Z,99.99
2017-07-20T06:17:13.808Z,99.99
2017-07-20T06:18:14.386Z,99.99
2017-07-20T06:19:14.964Z,99.99
2017-07-20T06:20:15.541Z,99.99
2017-07-20T06:21:16.119Z,99.99
2017-07-20T06:22:16.696Z,99.99
2017-07-20T06:23:17.274Z,99.99
2017-07-20T06:24:17.852Z,99.99
2017-07-20T06:25:18.431Z,99.99
2017-07-20T06:26:19.008Z,99.99
2017-07-20T06:27:19.587Z,99.99
2017-07-20T06:28:20.163Z,99.99
2017-07-20T06:29:20.742Z,99.99
2017-07-20T06:30:21.320Z,99.99
2017-07-20T06:31:21.898Z,99.99
2017-07-20T06:32:22.489Z,99.99
2017-07-20T06:33:23.066Z,99.99
2017-07-20T06:34:23.646Z,99.99
2017-07-20T06:35:24.223Z,99.99
2017-07-20T06:36:24.802Z,99.99
2017-07-20T06:37:25.378Z,99.99
2017-07-20T06:38:25.968Z,99.99
2017-07-20T06:39:26.549Z,99.99
2017-07-20T06:40:27.126Z,99.99
2017-07-20T06:41:27.705Z,99.99
2017-07-20T06:42:28.283Z,99.99
2017-07-20T06:43:28.861Z,99.99
2017-07-20T06:44:29.440Z,99.99
2017-07-20T06:45:30.029Z,99.99
2017-07-20T06:46:30.609Z,99.99
2017-07-20T06:47:31.198Z,99.99
2017-07-20T06:48:31.776Z,99.99
2017-07-20T06:49:32.356Z,99.99
2017-07-20T06:50:32.935Z,99.99
2017-07-20T06:51:33.512Z,99.99
2017-07-20T06:52:34.091Z,99.99
2017-07-20T06:53:34.669Z,99.99
2017-07-20T06:54:35.248Z,99.99
2017-07-20T06:55:35.828Z,99.99
2017-07-20T06:56:36.409Z,99.99
2017-07-20T06:57:36.989Z,99.99
2017-07-20T06:58:37.569Z,99.99
2017-07-20T06:59:38.149Z,99.99
2017-07-20T07:00:38.732Z,99.99
2017-07-20T07:01:39.309Z,99.99
2017-07-20T07:02:39.902Z,99.99
2017-07-20T07:03:40.479Z,99.99
2017-07-20T07:04:41.061Z,99.99
2017-07-20T07:05:41.652Z,99.99
2017-07-20T07:06:42.235Z,99.99
2017-07-20T07:07:42.814Z,99.99
2017-07-20T07:08:43.394Z,99.99
2017-07-20T07:09:43.974Z,99.99
2017-07-20T07:10:44.553Z,99.99
2017-07-20T07:11:45.134Z,99.99
2017-07-20T07:12:45.715Z,99.99
2017-07-20T07:13:46.294Z,99.99
2017-07-20T07:14:46.879Z,99.99
2017-07-20T07:15:47.455Z,99.99
2017-07-20T07:16:48.033Z,99.99
2017-07-20T07:17:48.616Z,99.99
2017-07-20T07:18:49.196Z,99.99
2017-07-20T07:19:49.778Z,99.99
2017-07-20T07:20:50.358Z,99.99
2017-07-20T07:21:50.936Z,99.99
2017-07-20T07:22:51.521Z,99.99
2017-07-20T07:23:52.100Z,99.99
2017-07-20T07:24:52.689Z,99.99
2017-07-20T07:25:53.255Z,99.99
2017-07-20T07:26:53.837Z,99.99
2017-07-20T07:27:54.415Z,99.99
2017-07-20T07:28:55.008Z,99.99
2017-07-20T07:29:55.586Z,99.99
2017-07-20T07:30:56.166Z,99.99
2017-07-20T07:31:56.746Z,99.99
2017-07-20T07:32:57.332Z,99.99
2017-07-20T07:33:57.906Z,99.99
2017-07-20T07:34:58.488Z,99.99
2017-07-20T07:35:59.068Z,99.99
2017-07-20T07:36:59.648Z,99.99
2017-07-20T07:38:00.230Z,99.99
2017-07-20T07:39:00.810Z,99.99
2017-07-20T07:40:01.395Z,99.99
2017-07-20T07:41:01.972Z,99.99
2017-07-20T07:42:02.563Z,99.99
2017-07-20T07:43:03.143Z,99.99
2017-07-20T07:44:03.723Z,99.99
2017-07-20T07:45:04.302Z,99.99
2017-07-20T07:46:04.883Z,99.99
2017-07-20T07:47:05.464Z,99.99
2017-07-20T07:48:06.045Z,99.99
2017-07-20T07:49:06.634Z,99.99
2017-07-20T07:50:07.214Z,99.99
2017-07-20T07:51:07.796Z,99.99
2017-07-20T07:52:08.380Z,99.99
2017-07-20T07:53:08.953Z,99.99
2017-07-20T07:54:09.532Z,99.99
2017-07-20T07:55:10.125Z,99.99
2017-07-20T07:56:10.705Z,99.99
2017-07-20T07:57:11.284Z,99.99
2017-07-20T07:58:11.865Z,99.99
2017-07-20T07:59:12.442Z,99.99
2017-07-20T08:00:13.022Z,99.99
2017-07-20T08:01:13.611Z,99.99
2017-07-20T08:02:14.191Z,99.99
2017-07-20T08:03:14.785Z,99.99
2017-07-20T08:04:15.364Z,99.99
2017-07-20T08:05:15.954Z,99.99
2017-07-20T08:06:16.532Z,99.99
2017-07-20T08:07:17.112Z,99.99
2017-07-20T08:08:17.692Z,99.99
2017-07-20T08:09:18.282Z,99.99
2017-07-20T08:10:18.874Z,99.99
2017-07-20T08:11:19.456Z,99.99
2017-07-20T08:12:20.036Z,99.99
2017-07-20T08:13:20.617Z,99.99
2017-07-20T08:14:21.197Z,99.99
2017-07-20T08:15:21.778Z,99.99
2017-07-20T08:16:22.359Z,99.99
2017-07-20T08:17:22.938Z,99.99
2017-07-20T08:18:23.518Z,99.99
2017-07-20T08:19:24.099Z,99.99
2017-07-20T08:20:24.680Z,99.99
2017-07-20T08:21:25.262Z,99.99
2017-07-20T08:22:25.854Z,99.99
2017-07-20T08:23:26.433Z,99.99
2017-07-20T08:24:27.024Z,99.99
2017-07-20T08:25:27.615Z,99.99
2017-07-20T08:26:28.194Z,99.99
2017-07-20T08:27:28.773Z,99.99
2017-07-20T08:28:29.355Z,99.99
2017-07-20T08:29:29.935Z,99.99
2017-07-20T08:30:30.514Z,99.99
2017-07-20T08:31:31.094Z,99.99
2017-07-20T08:32:31.673Z,99.99
2017-07-20T08:33:32.265Z,99.99
2017-07-20T08:34:32.844Z,99.99
2017-07-20T08:35:33.423Z,99.99
2017-07-20T08:36:34.004Z,99.99
2017-07-20T08:37:34.582Z,99.99
2017-07-20T08:38:35.165Z,99.99
2017-07-20T08:39:35.743Z,99.99
2017-07-20T08:40:36.324Z,99.99
2017-07-20T08:41:36.903Z,99.99
2017-07-20T08:42:37.483Z,99.99
2017-07-20T08:43:38.063Z,99.99
2017-07-20T08:44:38.643Z,99.99
2017-07-20T08:45:39.224Z,99.99
2017-07-20T08:46:39.803Z,99.99
2017-07-20T08:47:40.385Z,99.99
2017-07-20T08:48:40.976Z,99.99
2017-07-20T08:49:41.556Z,99.99
2017-07-20T08:50:42.149Z,99.99
2017-07-20T08:51:42.730Z,99.99
2017-07-20T08:52:43.309Z,99.99
2017-07-20T08:53:43.889Z,99.99
2017-07-20T08:54:44.468Z,99.99
2017-07-20T08:55:45.048Z,99.99
2017-07-20T08:56:45.630Z,99.99
2017-07-20T08:57:46.210Z,99.99
2017-07-20T08:58:46.802Z,99.99
2017-07-20T08:59:47.384Z,99.99
2017-07-20T09:00:47.976Z,99.99
2017-07-20T09:01:48.560Z,99.99
2017-07-20T09:02:49.139Z,99.99
2017-07-20T09:03:49.719Z,99.99
2017-07-20T09:04:50.304Z,99.99
2017-07-20T09:05:50.881Z,99.99
2017-07-20T09:06:51.462Z,99.99
2017-07-20T09:07:52.046Z,99.99
2017-07-20T09:08:52.624Z,99.99
2017-07-20T09:09:53.205Z,99.99
2017-07-20T09:10:53.786Z,99.99
2017-07-20T09:11:54.366Z,99.99
2017-07-20T09:12:54.958Z,99.99
2017-07-20T09:13:55.538Z,99.99
2017-07-20T09:14:56.120Z,99.99
2017-07-20T09:15:56.702Z,99.99
2017-07-20T09:16:57.281Z,99.99
2017-07-20T09:17:57.860Z,99.99
2017-07-20T09:18:58.440Z,99.99
2017-07-20T09:19:59.021Z,99.99
2017-07-20T09:20:59.602Z,99.99
2017-07-20T09:22:00.184Z,99.99
2017-07-20T09:23:00.766Z,99.99
2017-07-20T09:24:01.346Z,99.99
2017-07-20T09:25:01.929Z,99.99
2017-07-20T09:26:02.511Z,99.99
2017-07-20T09:27:03.103Z,99.99
2017-07-20T09:28:03.685Z,99.99
2017-07-20T09:29:04.267Z,99.99
2017-07-20T09:30:04.847Z,99.99
2017-07-20T09:31:05.427Z,99.99
2017-07-20T09:32:06.006Z,99.99
2017-07-20T09:33:06.591Z,99.99
2017-07-20T09:34:07.170Z,99.99
2017-07-20T09:35:07.750Z,99.99
2017-07-20T09:36:08.343Z,99.99
2017-07-20T09:37:08.924Z,99.99
2017-07-20T09:38:09.505Z,99.99
2017-07-20T09:39:10.085Z,99.99
2017-07-20T09:40:10.666Z,99.99
2017-07-20T09:41:11.246Z,99.99
2017-07-20T09:42:11.829Z,99.99
2017-07-20T09:43:12.409Z,99.99
2017-07-20T09:44:12.994Z,99.99
2017-07-20T09:45:13.570Z,99.99
2017-07-20T09:46:14.162Z,99.99
2017-07-20T09:47:14.745Z,99.99
2017-07-20T09:48:15.338Z,99.99
2017-07-20T09:49:15.919Z,99.99
2017-07-20T09:50:16.500Z,99.99
2017-07-20T09:51:17.081Z,99.99
2017-07-20T09:52:17.661Z,99.99
2017-07-20T09:53:18.255Z,99.99
2017-07-20T09:54:18.849Z,99.99
2017-07-20T09:55:19.429Z,99.99
2017-07-20T09:56:20.010Z,99.99
2017-07-20T09:57:20.603Z,99.99
2017-07-20T09:58:21.196Z,99.99
2017-07-20T09:59:21.781Z,99.99
2017-07-20T10:00:22.361Z,99.99
2017-07-20T10:01:22.942Z,99.99
2017-07-20T10:02:23.525Z,99.99
2017-07-20T10:03:24.107Z,99.99
2017-07-20T10:04:24.687Z,99.99
2017-07-20T10:05:25.268Z,99.99
2017-07-20T10:06:25.849Z,99.99
2017-07-20T10:07:26.431Z,99.99
2017-07-20T10:08:27.015Z,99.99
2017-07-20T10:09:27.606Z,99.99
2017-07-20T10:10:28.190Z,99.99
2017-07-20T10:11:28.773Z,99.99
2017-07-20T10:12:29.353Z,99.99
2017-07-20T10:13:29.933Z,99.99
2017-07-20T10:14:30.514Z,99.99
2017-07-20T10:15:31.095Z,99.99
2017-07-20T10:16:31.678Z,99.99
2017-07-20T10:17:32.259Z,99.99
2017-07-20T10:18:32.842Z,99.99
2017-07-20T10:19:33.424Z,99.99
2017-07-20T10:20:34.004Z,99.99
2017-07-20T10:21:34.588Z,99.99
2017-07-20T10:22:35.170Z,99.99
2017-07-20T10:23:35.752Z,99.99
2017-07-20T10:24:36.334Z,99.99
2017-07-20T10:25:36.916Z,99.99
2017-07-20T10:26:37.499Z,99.99
2017-07-20T10:27:38.080Z,99.99
2017-07-20T10:28:38.664Z,99.99
2017-07-20T10:29:39.257Z,99.99
2017-07-20T10:30:39.839Z,99.99
2017-07-20T10:31:40.425Z,99.99
2017-07-20T10:32:41.034Z,99.99
2017-07-20T10:33:41.596Z,99.99
2017-07-20T10:34:42.179Z,99.99
2017-07-20T10:35:42.762Z,99.65
2017-07-20T10:36:43.345Z,99.84
2017-07-20T10:37:43.937Z,99.99
2017-07-20T10:38:44.522Z,99.99
2017-07-20T10:39:45.105Z,99.99
2017-07-20T10:40:45.687Z,98.54
2017-07-20T10:41:46.269Z,99.60
2017-07-20T10:42:46.852Z,99.65
2017-07-20T10:43:47.437Z,98.30
2017-07-20T10:44:48.017Z,98.58
2017-07-20T10:45:48.601Z,96.84
2017-07-20T10:46:49.195Z,96.07
2017-07-20T10:47:49.789Z,96.26
2017-07-20T10:48:50.371Z,96.70
2017-07-20T10:49:50.958Z,95.01
2017-07-20T10:50:51.535Z,94.52
2017-07-20T10:51:52.129Z,93.75
2017-07-20T10:52:52.712Z,93.75
2017-07-20T10:53:53.295Z,94.86
2017-07-20T10:54:53.887Z,92.78
2017-07-20T10:55:54.469Z,92.88
2017-07-20T10:56:55.053Z,92.97
2017-07-20T10:57:55.636Z,93.75
2017-07-20T10:58:56.218Z,93.55
2017-07-20T10:59:56.799Z,93.70
2017-07-20T11:00:57.383Z,91.14
2017-07-20T11:01:57.966Z,92.78
2017-07-20T11:02:58.548Z,91.33
2017-07-20T11:03:59.135Z,91.33
2017-07-20T11:04:59.715Z,91.52
2017-07-20T11:06:00.298Z,92.06
2017-07-20T11:07:00.882Z,91.96
2017-07-20T11:08:01.464Z,91.96
2017-07-20T11:09:02.045Z,92.54
2017-07-20T11:10:02.626Z,93.32
2017-07-20T11:11:03.212Z,92.83
2017-07-20T11:12:03.811Z,94.09
2017-07-20T11:13:04.373Z,94.38
2017-07-20T11:14:04.956Z,95.20
2017-07-20T11:15:05.538Z,94.96
2017-07-20T11:16:06.119Z,95.20
2017-07-20T11:17:06.703Z,92.64
2017-07-20T11:18:07.287Z,93.32
2017-07-20T11:19:07.869Z,93.02
2017-07-20T11:20:08.451Z,92.83
2017-07-20T11:21:09.033Z,92.74
2017-07-20T11:22:09.618Z,93.17
2017-07-20T11:23:10.199Z,92.93
2017-07-20T11:24:10.783Z,93.17
2017-07-20T11:25:11.377Z,92.68
2017-07-20T11:26:11.960Z,91.86
2017-07-20T11:27:12.542Z,91.76
2017-07-20T11:28:13.124Z,90.74
2017-07-20T11:29:13.708Z,90.12
2017-07-20T11:30:14.292Z,91.38
2017-07-20T11:31:14.886Z,91.52
2017-07-20T11:32:15.469Z,89.92
2017-07-20T11:33:16.053Z,89.44
2017-07-20T11:34:16.634Z,90.41
2017-07-20T11:35:17.219Z,90.41
2017-07-20T11:36:17.800Z,90.36
2017-07-20T11:37:18.383Z,89.25
2017-07-20T11:38:18.965Z,90.21
2017-07-20T11:39:19.548Z,89.34
2017-07-20T11:40:20.134Z,89.83
2017-07-20T11:41:20.714Z,88.18
2017-07-20T11:42:21.296Z,89.44
2017-07-20T11:43:21.879Z,89.92
2017-07-20T11:44:22.473Z,90.31
2017-07-20T11:45:23.055Z,89.01
2017-07-20T11:46:23.638Z,88.81
2017-07-20T11:47:24.231Z,87.30
2017-07-20T11:48:24.813Z,87.20
2017-07-20T11:49:25.396Z,87.68
2017-07-20T11:50:25.979Z,87.78
2017-07-20T11:51:26.564Z,86.57
2017-07-20T11:52:27.146Z,85.89
2017-07-20T11:53:27.742Z,85.40
2017-07-20T11:54:28.324Z,85.11
2017-07-20T11:55:28.908Z,85.65
2017-07-20T11:56:29.492Z,85.27
2017-07-20T11:57:30.075Z,86.38
2017-07-20T11:58:30.660Z,86.19
2017-07-20T11:59:31.240Z,87.06
2017-07-20T12:00:31.825Z,88.18
2017-07-20T12:01:32.406Z,88.42
2017-07-20T12:02:32.990Z,87.54
2017-07-20T12:03:33.575Z,87.06
2017-07-20T12:04:34.158Z,88.13
2017-07-20T12:05:34.742Z,88.61
2017-07-20T12:06:35.327Z,88.23
2017-07-20T12:07:35.910Z,87.40
2017-07-20T12:08:36.503Z,86.23
2017-07-20T12:09:37.077Z,86.82
2017-07-20T12:10:37.661Z,84.49
2017-07-20T12:11:38.246Z,84.05
2017-07-20T12:12:38.829Z,84.92
2017-07-20T12:13:39.412Z,84.19
2017-07-20T12:14:39.994Z,84.28
2017-07-20T12:15:40.578Z,84.22
2017-07-20T12:16:41.164Z,83.70
2017-07-20T12:17:41.747Z,83.22
2017-07-20T12:18:42.329Z,83.85
2017-07-20T12:19:42.912Z,83.40
2017-07-20T12:20:43.497Z,82.78
2017-07-20T12:21:44.082Z,82.24
2017-07-20T12:22:44.667Z,81.62
2017-07-20T12:23:45.248Z,80.75
2017-07-20T12:24:45.833Z,80.65
2017-07-20T12:25:46.414Z,80.40
2017-07-20T12:26:46.999Z,81.12
2017-07-20T12:27:47.581Z,78.31
2017-07-20T12:28:48.167Z,77.92
2017-07-20T12:29:48.761Z,78.75
2017-07-20T12:30:49.342Z,80.05
2017-07-20T12:31:49.926Z,79.96
2017-07-20T12:32:50.513Z,76.81
2017-07-20T12:33:51.112Z,78.17
2017-07-20T12:34:51.691Z,77.98
2017-07-20T12:35:52.278Z,76.91
2017-07-20T12:36:52.860Z,78.21
2017-07-20T12:37:53.454Z,77.34
2017-07-20T12:38:54.039Z,76.72
2017-07-20T12:39:54.622Z,77.16
2017-07-20T12:40:55.204Z,77.90
2017-07-20T12:41:55.788Z,78.81
2017-07-20T12:42:56.371Z,79.30
2017-07-20T12:43:56.954Z,78.03
2017-07-20T12:44:57.535Z,78.42
2017-07-20T12:45:58.116Z,78.71
2017-07-20T12:46:58.699Z,79.25
2017-07-20T12:47:59.282Z,80.52
2017-07-20T12:48:59.867Z,80.90
2017-07-20T12:50:00.448Z,81.87
2017-07-20T12:51:01.033Z,79.76
2017-07-20T12:52:01.626Z,80.20
2017-07-20T12:53:02.215Z,77.30
2017-07-20T12:54:02.792Z,74.75
2017-07-20T12:55:03.373Z,74.79
2017-07-20T12:56:03.958Z,73.91
2017-07-20T12:57:04.551Z,72.21
2017-07-20T12:58:05.137Z,72.73
2017-07-20T12:59:05.719Z,71.66
2017-07-20T13:00:06.303Z,70.31